Time;durP1;ratioP1;P1;durP2;ratioP2;P2;SDS_P1;SDS_P2;PMS_P1;PMS_P2;Temp;Humidity;BMP_temperature;BMP_pressure;BME280_temperature;BME280_humidity;BME280_pressure;Samples;Min_cycle;Max_cycle;Signal;HPM_P1;HPM_P2
2022/04/12 00:00:17;;;;;;;10.70;5.72;;;11.40;62.90;;;;;;5019524;28;20501;-76
2022/04/12 00:02:43;;;;;;;8.60;5.45;;;11.40;62.90;;;;;;5004407;28;20041;-75
2022/04/12 00:05:12;;;;;;;10.15;5.78;;;11.40;62.80;;;;;;5016745;28;20048;-74
2022/04/12 00:07:42;;;;;;;12.95;5.68;;;11.50;62.80;;;;;;5021635;28;20041;-75
2022/04/12 00:10:08;;;;;;;9.45;6.05;;;11.60;62.60;;;;;;5011823;28;20052;-75
2022/04/12 00:12:35;;;;;;;9.82;6.03;;;11.60;62.60;;;;;;4999777;28;20160;-76
2022/04/12 00:15:02;;;;;;;10.25;5.70;;;11.60;62.60;;;;;;5017238;28;20045;-74
2022/04/12 00:20:12;;;;;;;9.02;5.85;;;11.80;62.10;;;;;;5009290;28;20765;-76
2022/04/12 00:22:39;;;;;;;9.40;5.25;;;11.70;62.00;;;;;;5005219;28;20042;-75
2022/04/12 00:25:08;;;;;;;8.23;4.60;;;11.80;61.90;;;;;;5012409;28;20033;-76
2022/04/12 00:27:33;;;;;;;9.07;5.00;;;11.80;61.80;;;;;;5017521;28;20029;-75
2022/04/12 00:29:59;;;;;;;11.00;5.85;;;11.90;61.60;;;;;;5009073;28;20042;-76
2022/04/12 00:32:25;;;;;;;8.65;5.10;;;11.90;61.60;;;;;;5018730;28;20041;-75
2022/04/12 00:34:50;;;;;;;7.65;4.80;;;12.00;61.30;;;;;;5019607;28;20037;-76
2022/04/12 00:37:16;;;;;;;9.20;5.90;;;12.00;61.60;;;;;;5014802;28;20136;-75
2022/04/12 00:39:42;;;;;;;9.25;5.30;;;12.00;61.70;;;;;;5011181;28;20046;-74
2022/04/12 00:42:08;;;;;;;8.48;5.18;;;12.00;61.50;;;;;;5014975;28;20052;-74
2022/04/12 00:44:33;;;;;;;8.68;5.20;;;12.00;61.40;;;;;;5010597;28;20112;-74
2022/04/12 00:46:59;;;;;;;8.32;4.95;;;12.10;61.60;;;;;;5015297;28;20073;-75
2022/04/12 00:49:25;;;;;;;8.75;5.10;;;12.00;61.80;;;;;;5010040;28;20064;-74
2022/04/12 00:51:51;;;;;;;10.10;5.35;;;12.00;62.10;;;;;;5011861;28;20037;-73
2022/04/12 00:54:19;;;;;;;7.93;5.00;;;11.90;62.30;;;;;;5020924;28;20139;-74
2022/04/12 00:56:47;;;;;;;8.13;4.95;;;11.90;62.40;;;;;;5012418;28;20852;-75
2022/04/12 00:59:14;;;;;;;7.32;4.72;;;11.90;62.60;;;;;;5017201;28;20199;-74
2022/04/12 01:01:40;;;;;;;8.20;4.88;;;11.80;62.80;;;;;;5014232;28;20274;-74
2022/04/12 01:04:05;;;;;;;8.93;5.22;;;11.80;62.80;;;;;;5005580;28;20043;-75
2022/04/12 01:06:31;;;;;;;7.90;4.78;;;11.80;62.90;;;;;;5005476;28;20078;-74
2022/04/12 01:08:57;;;;;;;8.38;5.28;;;11.80;63.00;;;;;;5015025;28;20469;-75
2022/04/12 01:11:23;;;;;;;7.35;4.95;;;11.80;63.00;;;;;;5020254;28;20044;-74
2022/04/12 01:13:49;;;;;;;9.77;4.97;;;11.70;63.00;;;;;;5016474;28;20374;-75
2022/04/12 01:16:15;;;;;;;9.75;5.28;;;11.70;63.10;;;;;;5019489;28;20494;-75
2022/04/12 01:18:41;;;;;;;9.00;5.70;;;11.70;63.20;;;;;;5007159;28;20046;-75
2022/04/12 01:21:06;;;;;;;9.48;6.05;;;11.70;63.40;;;;;;5010093;28;20094;-74
2022/04/12 01:23:41;;;;;;;9.18;5.47;;;11.70;63.30;;;;;;5025913;28;20400;-75
2022/04/12 01:26:08;;;;;;;8.57;5.47;;;11.70;63.30;;;;;;5012072;28;20033;-73
2022/04/12 01:28:33;;;;;;;9.45;5.38;;;11.70;63.40;;;;;;5016428;28;20057;-75
2022/04/12 01:30:59;;;;;;;9.93;5.53;;;11.70;63.50;;;;;;5018051;28;20148;-75
2022/04/12 01:33:25;;;;;;;8.93;4.88;;;11.60;63.70;;;;;;5009957;28;20487;-74
2022/04/12 01:35:50;;;;;;;10.48;5.40;;;11.60;63.90;;;;;;5020397;28;20033;-76
2022/04/12 01:38:16;;;;;;;7.72;5.18;;;11.60;63.90;;;;;;5010447;28;20434;-75
2022/04/12 01:40:42;;;;;;;10.05;5.32;;;11.60;64.00;;;;;;5014058;28;20131;-74
2022/04/12 01:43:10;;;;;;;8.00;4.72;;;11.50;64.10;;;;;;5027811;28;20041;-75
2022/04/12 01:45:36;;;;;;;7.57;4.85;;;11.50;64.30;;;;;;5031364;28;20491;-74
2022/04/12 01:48:01;;;;;;;11.27;5.40;;;11.50;64.40;;;;;;5013931;28;20082;-74
2022/04/12 01:50:27;;;;;;;9.45;5.18;;;11.40;64.70;;;;;;5012862;28;20041;-75
2022/04/12 01:52:53;;;;;;;9.82;4.90;;;11.40;64.70;;;;;;5013683;28;20033;-75
2022/04/12 01:55:18;;;;;;;9.10;5.03;;;11.40;64.70;;;;;;5014874;28;20053;-74
2022/04/12 01:57:45;;;;;;;8.38;5.03;;;11.40;64.80;;;;;;5012580;28;20112;-76
2022/04/12 02:00:11;;;;;;;8.07;4.95;;;11.40;64.80;;;;;;5019659;28;20508;-76
2022/04/12 02:02:37;;;;;;;9.32;5.15;;;11.30;64.90;;;;;;5007877;28;20038;-75
2022/04/12 02:05:03;;;;;;;7.88;5.07;;;11.30;64.90;;;;;;5001136;28;20037;-73
2022/04/12 02:07:28;;;;;;;8.15;4.55;;;11.30;65.10;;;;;;5015933;28;20099;-75
2022/04/12 02:09:54;;;;;;;8.98;5.13;;;11.30;65.20;;;;;;4995588;28;20044;-75
2022/04/12 02:12:20;;;;;;;10.13;5.35;;;11.20;65.30;;;;;;5019961;28;20051;-75
2022/04/12 02:14:45;;;;;;;10.48;5.72;;;11.20;65.60;;;;;;5008013;28;20040;-74
2022/04/12 02:17:11;;;;;;;10.52;5.55;;;11.10;65.70;;;;;;5003955;28;20040;-74
2022/04/12 02:19:37;;;;;;;9.52;5.50;;;11.10;65.90;;;;;;5010847;28;20044;-74
2022/04/12 02:22:05;;;;;;;9.00;4.95;;;11.10;66.10;;;;;;5024129;28;20399;-74
2022/04/12 02:24:31;;;;;;;8.85;5.30;;;11.10;66.20;;;;;;5015545;28;20041;-73
2022/04/12 02:26:56;;;;;;;9.52;5.18;;;11.00;66.30;;;;;;5008298;28;20045;-74
2022/04/12 02:29:22;;;;;;;9.65;5.18;;;11.00;66.30;;;;;;5008231;28;20034;-73
2022/04/12 02:31:48;;;;;;;8.55;5.72;;;11.00;66.30;;;;;;5013196;28;20096;-74
2022/04/12 02:34:13;;;;;;;10.95;5.32;;;11.00;66.40;;;;;;5008701;28;20091;-75
2022/04/12 02:36:39;;;;;;;7.90;4.80;;;10.90;66.40;;;;;;5009430;28;20164;-74
2022/04/12 02:39:05;;;;;;;9.98;5.28;;;10.90;66.50;;;;;;5011001;28;20046;-74
2022/04/12 02:41:31;;;;;;;8.23;5.15;;;10.80;66.70;;;;;;5011462;28;20025;-74
2022/04/12 02:43:57;;;;;;;8.05;5.15;;;10.80;66.80;;;;;;5010552;28;20424;-73
2022/04/12 02:46:22;;;;;;;10.07;5.13;;;10.80;66.80;;;;;;5015457;28;20042;-74
2022/04/12 02:48:48;;;;;;;7.22;4.90;;;10.70;66.90;;;;;;5012252;28;20068;-74
2022/04/12 02:51:14;;;;;;;8.90;5.30;;;10.70;67.00;;;;;;5005750;28;20388;-73
2022/04/12 02:53:39;;;;;;;9.30;5.00;;;10.70;67.10;;;;;;5011274;28;20457;-74
2022/04/12 02:56:05;;;;;;;9.90;4.65;;;10.70;67.20;;;;;;5018413;28;20048;-76
2022/04/12 02:58:31;;;;;;;8.48;5.05;;;10.60;67.30;;;;;;5008885;28;20084;-76
2022/04/12 03:00:56;;;;;;;9.63;4.78;;;10.60;67.40;;;;;;5015659;28;20041;-75
2022/04/12 03:03:22;;;;;;;8.82;4.55;;;10.60;67.60;;;;;;5019353;28;20499;-75
2022/04/12 03:05:47;;;;;;;9.43;5.68;;;10.50;67.70;;;;;;5015241;28;20435;-76
2022/04/12 03:08:13;;;;;;;9.77;5.78;;;10.50;67.80;;;;;;5004370;28;20038;-76
2022/04/12 03:10:39;;;;;;;7.95;5.05;;;10.40;67.90;;;;;;5017181;28;20029;-74
2022/04/12 03:13:04;;;;;;;9.27;4.95;;;10.40;68.10;;;;;;5019699;28;20030;-74
2022/04/12 03:15:30;;;;;;;10.43;5.13;;;10.40;68.30;;;;;;5018411;28;20477;-76
2022/04/12 03:17:56;;;;;;;9.07;5.57;;;10.40;68.30;;;;;;5010257;28;20058;-76
2022/04/12 03:20:21;;;;;;;10.65;5.18;;;10.30;68.30;;;;;;5013440;28;20030;-75
2022/04/12 03:22:47;;;;;;;11.10;5.43;;;10.40;68.40;;;;;;5017861;28;20449;-75
2022/04/12 03:25:13;;;;;;;10.20;5.47;;;10.30;68.50;;;;;;5011677;28;20151;-76
2022/04/12 03:27:38;;;;;;;9.88;5.65;;;10.30;68.40;;;;;;5018987;28;20057;-75
2022/04/12 03:30:05;;;;;;;10.20;5.22;;;10.20;68.70;;;;;;5027475;28;20275;-76
2022/04/12 03:32:31;;;;;;;8.73;5.05;;;10.20;68.80;;;;;;5015225;28;20038;-74
2022/04/12 03:34:56;;;;;;;9.98;5.47;;;10.20;68.90;;;;;;5021685;28;20040;-75
2022/04/12 03:37:22;;;;;;;10.18;5.85;;;10.10;69.00;;;;;;5011322;28;20358;-75
2022/04/12 03:39:50;;;;;;;9.63;5.55;;;10.10;69.20;;;;;;5014007;28;20543;-75
2022/04/12 03:42:18;;;;;;;7.80;5.10;;;10.10;69.20;;;;;;5016604;28;20477;-74
2022/04/12 03:44:45;;;;;;;10.15;5.53;;;10.10;69.30;;;;;;5013167;28;20060;-73
2022/04/12 03:47:11;;;;;;;9.20;5.28;;;10.00;69.60;;;;;;5019726;28;20026;-74
2022/04/12 03:49:36;;;;;;;12.20;5.32;;;10.10;69.70;;;;;;5014403;28;20060;-74
2022/04/12 03:52:02;;;;;;;8.45;4.97;;;10.00;69.60;;;;;;5022681;28;20548;-73
2022/04/12 03:54:28;;;;;;;9.25;5.10;;;10.00;69.60;;;;;;5004423;28;20431;-73
2022/04/12 03:56:54;;;;;;;8.75;5.55;;;9.90;69.80;;;;;;5015016;28;20049;-74
2022/04/12 03:59:20;;;;;;;9.98;5.53;;;9.90;69.80;;;;;;5014950;28;20072;-74
2022/04/12 04:01:46;;;;;;;8.77;5.50;;;9.90;70.00;;;;;;5017082;28;20034;-75
2022/04/12 04:04:12;;;;;;;10.73;5.40;;;9.80;70.10;;;;;;5016670;28;20037;-76
2022/04/12 04:06:38;;;;;;;9.85;5.43;;;9.80;70.20;;;;;;5021750;28;20043;-75
2022/04/12 04:09:03;;;;;;;9.32;4.97;;;9.80;70.30;;;;;;5010286;28;20526;-74
2022/04/12 04:11:29;;;;;;;8.82;5.35;;;9.80;70.30;;;;;;4999844;28;20057;-75
2022/04/12 04:13:55;;;;;;;7.93;4.90;;;9.70;70.40;;;;;;5011285;28;20038;-76
2022/04/12 04:16:21;;;;;;;9.40;5.25;;;9.80;70.60;;;;;;5013143;28;20087;-74
2022/04/12 04:18:46;;;;;;;9.18;5.20;;;9.70;70.50;;;;;;5009207;28;20414;-74
2022/04/12 04:21:12;;;;;;;9.57;5.43;;;9.70;70.50;;;;;;5021090;28;20088;-74
2022/04/12 04:23:38;;;;;;;8.45;5.68;;;9.70;70.50;;;;;;5018069;28;20049;-75
2022/04/12 04:26:04;;;;;;;8.73;5.18;;;9.70;70.70;;;;;;5017749;28;20053;-75
2022/04/12 04:28:30;;;;;;;9.27;5.60;;;9.70;71.00;;;;;;5017501;28;20025;-76
2022/04/12 04:30:56;;;;;;;9.88;5.45;;;9.70;71.00;;;;;;5022389;28;20029;-74
2022/04/12 04:33:22;;;;;;;8.88;5.60;;;9.80;70.80;;;;;;5016662;28;20048;-73
2022/04/12 04:35:49;;;;;;;9.07;5.45;;;9.80;70.70;;;;;;5019121;28;20025;-73
2022/04/12 04:38:15;;;;;;;9.52;5.10;;;9.80;70.80;;;;;;5024695;28;20129;-76
2022/04/12 04:40:42;;;;;;;11.82;4.95;;;9.80;70.80;;;;;;5042667;28;20030;-76
2022/04/12 04:43:08;;;;;;;12.50;5.25;;;9.80;70.70;;;;;;5020126;28;20358;-76
2022/04/12 04:45:34;;;;;;;9.95;5.28;;;9.70;70.70;;;;;;5017769;28;20083;-77
2022/04/12 04:48:02;;;;;;;10.60;5.22;;;9.70;70.70;;;;;;5010645;28;20377;-75
2022/04/12 04:50:33;;;;;;;9.73;4.78;;;9.70;70.80;;;;;;5009692;28;20034;-75
2022/04/12 04:53:00;;;;;;;10.60;5.05;;;9.70;71.00;;;;;;5016349;28;20038;-75
2022/04/12 04:55:26;;;;;;;9.50;4.95;;;9.70;71.00;;;;;;5006243;28;20801;-75
2022/04/12 04:57:59;;;;;;;10.60;5.30;;;9.60;71.00;;;;;;5001762;28;20037;-75
2022/04/12 05:00:29;;;;;;;9.82;4.55;;;9.70;71.10;;;;;;5020448;28;20099;-74
2022/04/12 05:02:56;;;;;;;7.95;4.25;;;9.60;71.20;;;;;;5013151;28;20035;-75
2022/04/12 05:05:22;;;;;;;8.57;5.03;;;9.70;71.30;;;;;;5019691;28;20050;-76
2022/04/12 05:07:50;;;;;;;9.75;5.97;;;9.70;71.10;;;;;;5017410;28;20737;-75
2022/04/12 05:10:21;;;;;;;10.43;5.90;;;9.70;71.30;;;;;;5017093;28;20483;-74
2022/04/12 05:12:47;;;;;;;9.05;5.25;;;9.70;71.30;;;;;;5011137;28;20034;-75
2022/04/12 05:15:13;;;;;;;10.80;6.25;;;9.70;71.60;;;;;;5014472;28;20452;-75
2022/04/12 05:17:39;;;;;;;9.20;6.18;;;9.70;71.30;;;;;;5014793;28;20128;-74
2022/04/12 05:20:11;;;;;;;11.88;5.93;;;9.80;71.50;;;;;;5015377;28;20425;-75
2022/04/12 05:22:37;;;;;;;10.68;5.72;;;9.80;71.40;;;;;;5010841;28;20360;-75
2022/04/12 05:25:03;;;;;;;8.77;5.00;;;10.00;71.50;;;;;;5004685;28;20033;-74
2022/04/12 05:27:33;;;;;;;15.00;4.75;;;10.10;71.50;;;;;;5011671;28;20171;-75
2022/04/12 05:29:59;;;;;;;11.20;4.88;;;10.20;71.10;;;;;;5002971;28;20549;-75
2022/04/12 05:32:25;;;;;;;11.15;5.55;;;10.30;70.90;;;;;;5010683;28;20500;-74
2022/04/12 05:34:51;;;;;;;17.02;5.80;;;10.40;70.60;;;;;;5005278;28;20041;-75
2022/04/12 05:37:17;;;;;;;9.32;4.68;;;10.60;70.20;;;;;;5009792;28;20133;-74
2022/04/12 05:39:43;;;;;;;10.10;4.97;;;10.70;69.70;;;;;;5008316;28;20045;-75
2022/04/12 05:42:09;;;;;;;10.25;4.70;;;10.80;69.30;;;;;;5014289;28;20037;-77
2022/04/12 05:44:35;;;;;;;7.70;4.30;;;10.90;69.00;;;;;;5003956;28;20039;-76
2022/04/12 05:47:04;;;;;;;7.63;4.00;;;11.10;68.60;;;;;;5003886;28;20822;-77
2022/04/12 05:49:31;;;;;;;9.32;4.60;;;11.10;68.40;;;;;;5001501;28;20631;-75
2022/04/12 05:51:57;;;;;;;11.80;4.32;;;11.30;68.20;;;;;;5004628;28;20049;-76
2022/04/12 05:54:23;;;;;;;10.98;5.20;;;11.30;68.10;;;;;;5006953;28;20846;-75
2022/04/12 05:56:50;;;;;;;12.20;4.13;;;11.40;68.00;;;;;;5003689;28;20414;-76
2022/04/12 05:59:15;;;;;;;10.35;4.20;;;11.50;68.00;;;;;;4998016;28;20845;-76
2022/04/12 06:01:41;;;;;;;12.07;4.60;;;11.50;68.00;;;;;;5004653;28;20098;-75
2022/04/12 06:04:07;;;;;;;12.30;4.45;;;11.60;67.90;;;;;;5001561;28;20037;-76
2022/04/12 06:06:33;;;;;;;10.70;4.20;;;11.60;67.90;;;;;;5004603;28;20033;-75
2022/04/12 06:09:00;;;;;;;10.32;4.20;;;11.80;67.80;;;;;;5000482;28;20053;-75
2022/04/12 06:11:26;;;;;;;8.85;3.92;;;11.90;67.50;;;;;;5003535;28;20040;-76
2022/04/12 06:13:52;;;;;;;10.82;4.63;;;12.00;67.00;;;;;;4998528;28;20507;-76
2022/04/12 06:16:18;;;;;;;12.85;4.03;;;12.10;67.00;;;;;;4995884;28;20282;-77
2022/04/12 06:18:44;;;;;;;9.10;4.20;;;12.10;66.70;;;;;;5009486;28;20455;-77
2022/04/12 06:21:10;;;;;;;10.82;4.50;;;12.20;66.50;;;;;;5001709;28;20124;-76
2022/04/12 06:23:35;;;;;;;13.77;4.25;;;12.30;66.20;;;;;;5003970;28;20553;-76
2022/04/12 06:26:01;;;;;;;11.55;4.28;;;12.40;66.20;;;;;;4992892;28;20068;-76
2022/04/12 06:28:27;;;;;;;12.82;3.67;;;12.40;66.10;;;;;;5001604;28;20382;-77
2022/04/12 06:30:54;;;;;;;10.15;4.45;;;12.60;65.70;;;;;;5006424;28;20022;-76
2022/04/12 06:33:19;;;;;;;10.02;4.10;;;12.60;65.30;;;;;;5006743;28;20038;-75
2022/04/12 06:35:45;;;;;;;12.27;4.10;;;12.60;65.10;;;;;;5005300;28;20045;-76
2022/04/12 06:38:11;;;;;;;11.57;3.95;;;12.70;65.40;;;;;;5002476;28;20053;-77
2022/04/12 06:40:38;;;;;;;11.40;3.83;;;12.70;65.50;;;;;;5006900;28;20033;-76
2022/04/12 06:43:04;;;;;;;9.23;3.97;;;12.80;65.20;;;;;;4996066;28;20123;-76
2022/04/12 06:45:29;;;;;;;7.60;3.95;;;12.90;65.10;;;;;;4999926;28;20029;-76
2022/04/12 06:47:58;;;;;;;10.93;3.88;;;12.90;64.90;;;;;;5003365;28;20477;-76
2022/04/12 06:50:25;;;;;;;10.93;3.92;;;13.00;64.50;;;;;;5007747;28;20048;-76
2022/04/12 06:52:51;;;;;;;10.02;3.90;;;13.10;64.10;;;;;;5002144;28;20144;-75
2022/04/12 06:55:17;;;;;;;9.02;4.10;;;13.20;63.40;;;;;;5007809;28;20042;-76
2022/04/12 06:57:43;;;;;;;8.52;4.03;;;13.40;63.00;;;;;;5000368;28;20107;-75
2022/04/12 07:00:09;;;;;;;8.27;3.75;;;13.50;63.20;;;;;;5000735;28;20061;-75
2022/04/12 07:02:36;;;;;;;12.73;4.20;;;13.60;62.90;;;;;;5000913;28;20559;-75
2022/04/12 07:05:03;;;;;;;9.40;4.10;;;13.70;62.80;;;;;;4996363;28;20413;-77
2022/04/12 07:07:29;;;;;;;10.95;3.70;;;13.90;62.50;;;;;;5002287;28;20029;-77
2022/04/12 07:09:55;;;;;;;16.65;4.57;;;14.00;61.30;;;;;;5010299;28;20065;-76
2022/04/12 07:12:21;;;;;;;10.57;3.97;;;14.10;60.70;;;;;;5002578;28;20529;-78
2022/04/12 07:14:47;;;;;;;8.13;3.63;;;14.20;61.20;;;;;;4998813;28;20159;-76
2022/04/12 07:17:12;;;;;;;9.57;4.10;;;14.30;61.10;;;;;;5005821;28;20034;-75
2022/04/12 07:19:38;;;;;;;9.10;3.72;;;14.40;61.00;;;;;;4995708;28;20072;-75
2022/04/12 07:22:09;;;;;;;9.88;3.63;;;14.50;60.10;;;;;;5005064;28;20038;-75
2022/04/12 07:24:35;;;;;;;6.82;3.47;;;14.60;60.30;;;;;;4996454;28;20566;-75
2022/04/12 07:27:01;;;;;;;10.15;3.70;;;14.60;59.50;;;;;;5007143;28;20164;-78
2022/04/12 07:29:27;;;;;;;8.50;3.72;;;14.70;59.80;;;;;;4997339;28;20045;-77
2022/04/12 07:31:52;;;;;;;6.90;3.90;;;14.90;59.10;;;;;;4999433;28;20115;-77
2022/04/12 07:34:18;;;;;;;11.75;4.15;;;14.90;59.10;;;;;;5006732;28;20455;-76
2022/04/12 07:36:47;;;;;;;10.43;4.80;;;15.10;59.00;;;;;;5004961;28;20148;-77
2022/04/12 07:39:14;;;;;;;8.80;3.72;;;15.30;58.60;;;;;;5002030;28;20525;-76
2022/04/12 07:41:40;;;;;;;9.68;4.20;;;15.50;58.20;;;;;;4999140;28;20053;-76
2022/04/12 07:44:06;;;;;;;10.57;3.75;;;15.60;57.50;;;;;;4998877;28;20052;-76
2022/04/12 07:46:32;;;;;;;9.35;3.70;;;15.80;57.00;;;;;;4998466;28;20057;-76
2022/04/12 07:48:57;;;;;;;8.20;3.72;;;15.80;57.20;;;;;;4996016;28;20038;-76
2022/04/12 07:51:23;;;;;;;10.82;4.10;;;15.90;56.70;;;;;;5009761;28;20037;-76
2022/04/12 07:53:49;;;;;;;10.82;4.05;;;16.00;55.30;;;;;;4997882;28;20406;-76
2022/04/12 07:56:15;;;;;;;9.88;3.47;;;16.10;55.50;;;;;;4992196;28;20073;-74
2022/04/12 07:58:40;;;;;;;7.78;3.60;;;16.10;55.00;;;;;;5000879;28;20235;-73
2022/04/12 08:01:06;;;;;;;9.73;3.55;;;16.10;54.90;;;;;;5000648;28;20079;-74
2022/04/12 08:03:31;;;;;;;11.63;4.00;;;16.20;54.60;;;;;;5005919;28;20163;-75
2022/04/12 08:05:57;;;;;;;8.32;3.90;;;16.30;53.40;;;;;;4999517;28;20026;-74
2022/04/12 08:08:23;;;;;;;8.98;4.05;;;16.50;53.90;;;;;;4999496;28;20072;-76
2022/04/12 08:10:49;;;;;;;10.48;4.60;;;16.60;53.90;;;;;;5004678;28;20053;-73
2022/04/12 08:13:14;;;;;;;9.10;4.50;;;16.80;54.10;;;;;;5008313;28;20034;-73
2022/04/12 08:15:40;;;;;;;10.77;4.28;;;17.00;53.60;;;;;;5005034;28;20034;-74
2022/04/12 08:18:06;;;;;;;11.40;4.38;;;17.00;53.10;;;;;;5006224;28;20128;-74
2022/04/12 08:20:33;;;;;;;10.00;3.80;;;17.10;52.60;;;;;;5006602;28;20037;-74
2022/04/12 08:22:59;;;;;;;8.65;3.65;;;17.20;52.50;;;;;;5013949;28;20062;-74
2022/04/12 08:25:25;;;;;;;8.15;3.45;;;17.30;52.70;;;;;;5008452;28;20796;-73
2022/04/12 08:27:51;;;;;;;10.32;4.13;;;17.30;52.50;;;;;;5001594;28;20568;-74
2022/04/12 08:30:16;;;;;;;8.70;4.03;;;17.30;52.60;;;;;;4996392;28;20149;-74
2022/04/12 08:32:42;;;;;;;7.75;4.00;;;17.40;52.70;;;;;;5000586;28;20080;-73
2022/04/12 08:35:09;;;;;;;7.20;3.83;;;17.60;52.80;;;;;;5002258;28;20038;-76
2022/04/12 08:37:34;;;;;;;7.63;3.90;;;17.50;52.20;;;;;;4995608;28;20121;-74
2022/04/12 08:40:00;;;;;;;8.48;4.03;;;17.60;52.50;;;;;;4995741;28;20038;-73
2022/04/12 08:42:26;;;;;;;11.02;3.85;;;17.50;52.80;;;;;;4991336;28;20034;-74
2022/04/12 08:44:52;;;;;;;11.10;4.50;;;17.40;53.10;;;;;;4987320;28;20044;-74
2022/04/12 08:47:19;;;;;;;8.90;4.30;;;17.20;53.30;;;;;;4999668;28;20034;-73
2022/04/12 08:49:45;;;;;;;11.25;3.90;;;17.20;53.90;;;;;;5002309;28;20026;-73
2022/04/12 08:52:13;;;;;;;9.82;3.95;;;17.30;53.20;;;;;;4998232;28;20525;-73
2022/04/12 08:54:43;;;;;;;12.50;3.92;;;17.60;52.40;;;;;;5006277;28;20105;-73
2022/04/12 08:57:10;;;;;;;10.00;3.75;;;17.90;52.60;;;;;;5004218;28;20084;-75
2022/04/12 08:59:36;;;;;;;9.98;3.95;;;18.40;52.10;;;;;;5001668;28;20112;-72
2022/04/12 09:02:02;;;;;;;11.43;4.00;;;18.60;51.10;;;;;;5005011;28;20037;-74
2022/04/12 09:04:28;;;;;;;7.68;3.83;;;19.00;50.20;;;;;;4992780;28;20042;-72
2022/04/12 09:06:57;;;;;;;10.35;3.97;;;19.30;48.80;;;;;;4996549;28;20172;-74
2022/04/12 09:09:30;;;;;;;9.05;3.50;;;19.10;49.10;;;;;;4994554;28;20045;-73
2022/04/12 09:12:02;;;;;;;7.32;3.50;;;19.10;49.10;;;;;;4998396;28;20101;-73
2022/04/12 09:14:57;;;;;;;11.30;3.78;;;19.10;49.40;;;;;;4996937;28;20355;-73
2022/04/12 09:17:37;;;;;;;7.72;3.38;;;19.20;48.60;;;;;;5008479;28;20042;-75
2022/04/12 09:20:10;;;;;;;7.43;3.22;;;19.50;48.90;;;;;;4993133;28;20042;-77
2022/04/12 09:22:37;;;;;;;10.98;3.88;;;19.60;47.80;;;;;;4987925;28;20042;-72
2022/04/12 09:25:04;;;;;;;7.07;3.50;;;19.70;47.80;;;;;;4988918;28;20046;-73
2022/04/12 09:27:33;;;;;;;8.00;3.03;;;19.90;48.00;;;;;;4991336;28;20042;-74
2022/04/12 09:30:05;;;;;;;8.98;4.00;;;19.80;47.10;;;;;;4987739;28;20244;-72
2022/04/12 09:32:50;;;;;;;8.70;3.15;;;19.80;46.10;;;;;;4988999;28;20038;-72
2022/04/12 09:35:16;;;;;;;8.63;3.10;;;19.70;46.80;;;;;;4990280;28;20389;-74
2022/04/12 09:37:44;;;;;;;8.10;3.38;;;19.70;47.00;;;;;;4987798;28;20116;-75
2022/04/12 09:40:14;;;;;;;7.43;2.75;;;19.70;45.90;;;;;;4990697;28;20154;-74
2022/04/12 09:42:48;;;;;;;10.10;3.17;;;19.70;46.50;;;;;;4991754;28;20041;-73
2022/04/12 09:45:25;;;;;;;7.18;2.92;;;19.80;46.50;;;;;;4994850;28;20078;-74
2022/04/12 09:47:52;;;;;;;7.15;3.13;;;19.90;45.70;;;;;;4993960;28;20059;-73
2022/04/12 09:50:22;;;;;;;7.00;2.97;;;19.90;45.80;;;;;;4994147;28;20132;-73
2022/04/12 09:52:57;;;;;;;8.90;2.75;;;19.90;45.60;;;;;;4993179;28;20136;-74
2022/04/12 09:55:43;;;;;;;10.10;3.17;;;19.70;44.90;;;;;;4993649;28;20452;-74
2022/04/12 09:58:14;;;;;;;16.33;4.47;;;19.70;45.80;;;;;;4990843;28;20553;-74
2022/04/12 10:00:42;;;;;;;15.77;5.20;;;19.90;45.10;;;;;;4988844;28;20045;-74
2022/04/12 10:03:09;;;;;;;8.93;2.80;;;20.10;45.00;;;;;;4993822;28;20144;-73
2022/04/12 10:05:36;;;;;;;9.65;2.95;;;20.10;44.60;;;;;;4996921;28;21369;-73
2022/04/12 10:08:04;;;;;;;8.95;2.53;;;20.10;44.80;;;;;;5004103;28;20205;-75
2022/04/12 10:10:30;;;;;;;6.22;2.55;;;20.60;44.50;;;;;;4993796;28;20444;-74
2022/04/12 10:12:58;;;;;;;12.52;2.92;;;20.40;44.60;;;;;;4997888;28;20045;-73
2022/04/12 10:15:27;;;;;;;7.30;2.40;;;20.50;44.10;;;;;;4992829;28;20033;-72
2022/04/12 10:17:54;;;;;;;7.65;2.75;;;20.60;43.60;;;;;;4988749;28;20038;-72
2022/04/12 10:20:20;;;;;;;7.53;2.65;;;20.60;43.20;;;;;;4987348;28;20673;-72
2022/04/12 10:22:47;;;;;;;6.10;2.67;;;20.60;43.20;;;;;;4990157;28;20036;-74
2022/04/12 10:25:21;;;;;;;6.35;2.83;;;20.80;43.70;;;;;;5000144;28;20127;-72
2022/04/12 10:27:50;;;;;;;9.55;2.22;;;20.90;44.00;;;;;;4996055;28;20497;-73
2022/04/12 10:30:20;;;;;;;7.68;2.72;;;20.70;43.90;;;;;;4997290;28;20569;-72
2022/04/12 10:33:08;;;;;;;8.43;2.50;;;20.60;43.50;;;;;;4991054;28;20549;-73
2022/04/12 10:35:42;;;;;;;6.95;2.42;;;20.70;43.00;;;;;;4989485;28;20034;-73
2022/04/12 10:38:16;;;;;;;9.98;2.80;;;20.60;43.30;;;;;;5001158;28;20167;-73
2022/04/12 10:40:45;;;;;;;9.68;2.97;;;20.80;43.30;;;;;;4998853;28;20068;-73
2022/04/12 10:43:12;;;;;;;9.07;2.45;;;20.90;42.50;;;;;;4994462;28;20057;-73
2022/04/12 10:45:46;;;;;;;8.85;2.83;;;21.00;43.80;;;;;;4991884;28;20042;-73
2022/04/12 10:48:19;;;;;;;6.90;2.50;;;21.30;43.20;;;;;;5001345;28;20037;-72
2022/04/12 10:50:46;;;;;;;7.68;2.53;;;21.70;42.60;;;;;;4989531;28;20060;-73
2022/04/12 10:53:12;;;;;;;9.40;2.50;;;21.80;42.40;;;;;;4995364;28;20103;-75
2022/04/12 10:55:43;;;;;;;7.30;2.15;;;21.90;40.90;;;;;;4991843;28;20042;-74
2022/04/12 10:58:14;;;;;;;5.03;2.10;;;21.70;40.80;;;;;;4994623;28;20033;-74
2022/04/12 11:00:43;;;;;;;6.45;2.55;;;21.60;41.80;;;;;;4992789;28;20194;-74
2022/04/12 11:03:11;;;;;;;7.82;2.47;;;21.60;42.00;;;;;;4992213;28;20046;-71
2022/04/12 11:05:37;;;;;;;7.70;2.75;;;22.10;41.30;;;;;;4993690;28;20451;-74
2022/04/12 11:08:07;;;;;;;8.43;2.35;;;21.90;41.60;;;;;;4992990;28;20514;-74
2022/04/12 11:10:33;;;;;;;8.95;2.50;;;22.00;41.50;;;;;;4996754;28;20116;-74
2022/04/12 11:13:07;;;;;;;11.52;2.45;;;22.10;42.30;;;;;;4994871;28;20041;-73
2022/04/12 11:15:34;;;;;;;7.03;2.30;;;22.50;41.00;;;;;;4993576;28;20786;-73
2022/04/12 11:18:10;;;;;;;8.50;2.50;;;22.70;40.20;;;;;;4999052;28;20041;-73
2022/04/12 11:20:39;;;;;;;6.05;2.17;;;22.70;40.10;;;;;;4997402;28;20558;-73
2022/04/12 11:23:09;;;;;;;7.45;2.28;;;22.90;39.80;;;;;;4994220;28;20457;-73
2022/04/12 11:25:43;;;;;;;11.45;3.03;;;22.90;39.90;;;;;;4994132;28;20037;-73
2022/04/12 11:28:09;;;;;;;6.55;2.17;;;22.70;39.70;;;;;;4997838;28;20048;-73
2022/04/12 11:30:35;;;;;;;7.97;2.30;;;22.80;40.10;;;;;;4994903;28;20038;-74
2022/04/12 11:33:01;;;;;;;8.18;2.45;;;22.70;40.20;;;;;;4997478;28;20091;-73
2022/04/12 11:35:26;;;;;;;6.43;2.45;;;22.80;40.20;;;;;;5001215;28;20037;-73
2022/04/12 11:37:52;;;;;;;9.93;2.60;;;22.60;39.90;;;;;;4996270;28;20390;-74
2022/04/12 11:40:18;;;;;;;6.22;2.50;;;22.60;40.40;;;;;;5003256;28;20426;-73
2022/04/12 11:42:44;;;;;;;7.95;2.67;;;22.70;40.90;;;;;;5000282;28;20764;-73
2022/04/12 11:45:13;;;;;;;6.35;2.95;;;22.80;41.10;;;;;;4997525;28;20026;-73
2022/04/12 11:47:43;;;;;;;7.97;3.25;;;22.90;40.90;;;;;;5000650;28;20428;-73
2022/04/12 11:50:17;;;;;;;7.28;2.80;;;23.00;40.10;;;;;;5001464;28;20539;-72
2022/04/12 11:52:46;;;;;;;10.10;3.63;;;23.00;40.00;;;;;;5005418;28;20033;-71
2022/04/12 11:55:12;;;;;;;8.15;2.72;;;22.60;41.20;;;;;;5014756;28;20376;-74
2022/04/12 11:57:38;;;;;;;9.52;3.42;;;22.70;41.80;;;;;;4996173;28;20048;-74
2022/04/12 12:00:05;;;;;;;9.75;3.33;;;22.70;40.70;;;;;;4991436;28;20038;-75
2022/04/12 12:02:33;;;;;;;9.05;3.13;;;22.70;40.60;;;;;;4996019;28;20044;-75
2022/04/12 12:05:02;;;;;;;8.45;3.03;;;23.00;41.20;;;;;;4992933;28;20038;-75
2022/04/12 12:07:28;;;;;;;11.20;3.47;;;23.10;40.70;;;;;;5000388;28;20030;-72
2022/04/12 12:09:58;;;;;;;10.57;3.13;;;23.40;40.40;;;;;;5002196;28;20033;-73
2022/04/12 12:12:38;;;;;;;10.63;4.05;;;23.50;40.00;;;;;;4997741;28;20400;-73
2022/04/12 12:15:15;;;;;;;9.70;3.03;;;23.20;40.30;;;;;;4996385;28;20102;-74
2022/04/12 12:17:41;;;;;;;11.07;3.22;;;23.00;40.30;;;;;;4996276;28;20935;-73
2022/04/12 12:20:08;;;;;;;10.90;3.88;;;23.20;40.60;;;;;;5003667;28;20041;-75
2022/04/12 12:22:39;;;;;;;10.57;3.15;;;23.30;40.60;;;;;;5003419;28;20044;-75
2022/04/12 12:25:05;;;;;;;8.93;3.10;;;23.40;40.50;;;;;;5013053;28;20481;-74
2022/04/12 12:27:41;;;;;;;10.05;3.92;;;22.80;41.30;;;;;;5003339;28;20030;-73
2022/04/12 12:30:14;;;;;;;11.85;3.60;;;23.00;41.90;;;;;;4994752;28;20587;-73
2022/04/12 12:32:42;;;;;;;8.50;3.10;;;23.40;40.80;;;;;;4992531;28;20485;-73
2022/04/12 12:35:10;;;;;;;8.20;3.45;;;23.40;40.40;;;;;;4996738;28;20038;-73
2022/04/12 12:37:38;;;;;;;8.60;3.20;;;23.60;39.90;;;;;;4995930;28;20482;-74
2022/04/12 12:40:19;;;;;;;9.65;3.17;;;23.60;39.60;;;;;;5005011;28;20046;-74
2022/04/12 12:42:45;;;;;;;8.00;2.92;;;23.60;39.30;;;;;;5006974;28;20044;-73
2022/04/12 12:45:13;;;;;;;8.13;2.80;;;23.50;39.80;;;;;;5010523;28;20420;-73
2022/04/12 12:47:43;;;;;;;7.95;2.70;;;23.60;39.40;;;;;;5002984;28;20037;-73